sensor_id;sensor_type;location;lat;lon;timestamp;P1;durP1;ratioP1;P2;durP2;ratioP2
17570;SDS011;8903;52.220;20.978;2023-06-22T00:02:06;36.60;;;33.10;;
17570;SDS011;8903;52.220;20.978;2023-06-22T00:04:33;35.00;;;31.83;;
17570;SDS011;8903;52.220;20.978;2023-06-22T00:07:01;37.73;;;33.00;;
17570;SDS011;8903;52.220;20.978;2023-06-22T00:09:28;37.40;;;33.80;;
17570;SDS011;8903;52.220;20.978;2023-06-22T00:11:55;37.03;;;33.23;;
17570;SDS011;8903;52.220;20.978;2023-06-22T00:14:24;37.43;;;33.90;;
17570;SDS011;8903;52.220;20.978;2023-06-22T00:16:51;36.93;;;33.63;;
17570;SDS011;8903;52.220;20.978;2023-06-22T00:19:19;35.63;;;32.40;;
17570;SDS011;8903;52.220;20.978;2023-06-22T00:21:47;38.07;;;34.27;;
17570;SDS011;8903;52.220;20.978;2023-06-22T00:24:18;38.43;;;34.93;;
17570;SDS011;8903;52.220;20.978;2023-06-22T00:26:45;36.37;;;33.07;;
17570;SDS011;8903;52.220;20.978;2023-06-22T00:29:12;39.50;;;35.77;;
17570;SDS011;8903;52.220;20.978;2023-06-22T00:31:41;35.37;;;32.03;;
17570;SDS011;8903;52.220;20.978;2023-06-22T00:34:08;38.20;;;34.70;;
17570;SDS011;8903;52.220;20.978;2023-06-22T00:36:36;36.43;;;32.93;;
17570;SDS011;8903;52.220;20.978;2023-06-22T00:39:06;37.43;;;33.63;;
17570;SDS011;8903;52.220;20.978;2023-06-22T00:41:33;35.57;;;32.27;;
17570;SDS011;8903;52.220;20.978;2023-06-22T00:44:03;36.60;;;33.10;;
17570;SDS011;8903;52.220;20.978;2023-06-22T00:46:31;34.30;;;31.33;;
17570;SDS011;8903;52.220;20.978;2023-06-22T00:49:00;36.53;;;33.30;;
17570;SDS011;8903;52.220;20.978;2023-06-22T00:51:30;34.90;;;31.60;;
17570;SDS011;8903;52.220;20.978;2023-06-22T00:53:57;36.37;;;32.87;;
17570;SDS011;8903;52.220;20.978;2023-06-22T00:56:25;35.53;;;32.33;;
17570;SDS011;8903;52.220;20.978;2023-06-22T00:58:55;34.80;;;31.70;;
17570;SDS011;8903;52.220;20.978;2023-06-22T01:01:22;34.27;;;30.87;;
17570;SDS011;8903;52.220;20.978;2023-06-22T01:03:50;36.33;;;32.90;;
17570;SDS011;8903;52.220;20.978;2023-06-22T01:06:21;34.70;;;31.13;;
17570;SDS011;8903;52.220;20.978;2023-06-22T01:08:55;34.50;;;31.00;;
17570;SDS011;8903;52.220;20.978;2023-06-22T01:11:24;35.70;;;32.20;;
17570;SDS011;8903;52.220;20.978;2023-06-22T01:13:54;33.63;;;30.27;;
17570;SDS011;8903;52.220;20.978;2023-06-22T01:16:26;36.73;;;33.13;;
17570;SDS011;8903;52.220;20.978;2023-06-22T01:18:55;36.07;;;32.43;;
17570;SDS011;8903;52.220;20.978;2023-06-22T01:21:24;34.73;;;31.47;;
17570;SDS011;8903;52.220;20.978;2023-06-22T01:23:56;36.77;;;33.47;;
17570;SDS011;8903;52.220;20.978;2023-06-22T01:26:32;38.20;;;34.50;;
17570;SDS011;8903;52.220;20.978;2023-06-22T01:29:03;37.50;;;33.97;;
17570;SDS011;8903;52.220;20.978;2023-06-22T01:31:32;36.83;;;33.20;;
17570;SDS011;8903;52.220;20.978;2023-06-22T01:34:01;37.70;;;34.10;;
17570;SDS011;8903;52.220;20.978;2023-06-22T01:36:29;35.63;;;32.43;;
17570;SDS011;8903;52.220;20.978;2023-06-22T01:38:57;39.60;;;35.60;;
17570;SDS011;8903;52.220;20.978;2023-06-22T01:41:26;38.10;;;34.30;;
17570;SDS011;8903;52.220;20.978;2023-06-22T01:43:54;39.80;;;36.20;;
17570;SDS011;8903;52.220;20.978;2023-06-22T01:46:23;38.10;;;34.70;;
17570;SDS011;8903;52.220;20.978;2023-06-22T01:48:51;39.70;;;35.63;;
17570;SDS011;8903;52.220;20.978;2023-06-22T01:51:18;40.03;;;36.03;;
17570;SDS011;8903;52.220;20.978;2023-06-22T01:53:45;39.90;;;35.97;;
17570;SDS011;8903;52.220;20.978;2023-06-22T01:56:13;39.67;;;35.90;;
17570;SDS011;8903;52.220;20.978;2023-06-22T01:58:45;39.03;;;35.47;;
17570;SDS011;8903;52.220;20.978;2023-06-22T02:01:14;42.03;;;38.00;;
17570;SDS011;8903;52.220;20.978;2023-06-22T02:03:46;39.80;;;35.80;;
17570;SDS011;8903;52.220;20.978;2023-06-22T02:06:16;39.50;;;35.57;;
17570;SDS011;8903;52.220;20.978;2023-06-22T02:08:46;42.00;;;37.97;;
17570;SDS011;8903;52.220;20.978;2023-06-22T02:11:15;41.00;;;36.87;;
17570;SDS011;8903;52.220;20.978;2023-06-22T02:13:44;41.03;;;37.03;;
17570;SDS011;8903;52.220;20.978;2023-06-22T02:16:13;43.77;;;39.50;;
17570;SDS011;8903;52.220;20.978;2023-06-22T02:18:47;43.80;;;39.70;;
17570;SDS011;8903;52.220;20.978;2023-06-22T02:21:16;47.37;;;42.90;;
17570;SDS011;8903;52.220;20.978;2023-06-22T02:23:43;44.87;;;40.63;;
17570;SDS011;8903;52.220;20.978;2023-06-22T02:26:11;44.90;;;40.90;;
17570;SDS011;8903;52.220;20.978;2023-06-22T02:28:38;48.73;;;42.43;;
17570;SDS011;8903;52.220;20.978;2023-06-22T02:31:06;47.37;;;42.70;;
17570;SDS011;8903;52.220;20.978;2023-06-22T02:33:33;49.20;;;44.37;;
17570;SDS011;8903;52.220;20.978;2023-06-22T02:36:01;50.23;;;45.23;;
17570;SDS011;8903;52.220;20.978;2023-06-22T02:38:30;48.03;;;43.30;;
17570;SDS011;8903;52.220;20.978;2023-06-22T02:40:59;50.30;;;45.27;;
17570;SDS011;8903;52.220;20.978;2023-06-22T02:43:26;52.83;;;47.33;;
17570;SDS011;8903;52.220;20.978;2023-06-22T02:45:53;52.60;;;47.40;;
17570;SDS011;8903;52.220;20.978;2023-06-22T02:48:21;55.73;;;50.23;;
17570;SDS011;8903;52.220;20.978;2023-06-22T02:50:48;57.03;;;51.13;;
17570;SDS011;8903;52.220;20.978;2023-06-22T02:53:17;60.00;;;53.97;;
17570;SDS011;8903;52.220;20.978;2023-06-22T02:55:46;67.47;;;57.83;;
17570;SDS011;8903;52.220;20.978;2023-06-22T02:58:13;62.17;;;55.13;;
17570;SDS011;8903;52.220;20.978;2023-06-22T03:00:42;69.03;;;59.50;;
17570;SDS011;8903;52.220;20.978;2023-06-22T03:03:09;68.50;;;59.47;;
17570;SDS011;8903;52.220;20.978;2023-06-22T03:05:36;71.40;;;63.60;;
17570;SDS011;8903;52.220;20.978;2023-06-22T03:08:05;70.30;;;62.77;;
17570;SDS011;8903;52.220;20.978;2023-06-22T03:10:35;69.33;;;61.77;;
17570;SDS011;8903;52.220;20.978;2023-06-22T03:13:03;68.23;;;60.77;;
17570;SDS011;8903;52.220;20.978;2023-06-22T03:15:30;70.80;;;63.13;;
17570;SDS011;8903;52.220;20.978;2023-06-22T03:17:59;67.00;;;59.43;;
17570;SDS011;8903;52.220;20.978;2023-06-22T03:20:27;72.67;;;59.57;;
17570;SDS011;8903;52.220;20.978;2023-06-22T03:22:58;66.73;;;57.57;;
17570;SDS011;8903;52.220;20.978;2023-06-22T03:25:26;68.23;;;58.30;;
17570;SDS011;8903;52.220;20.978;2023-06-22T03:27:55;65.80;;;58.53;;
17570;SDS011;8903;52.220;20.978;2023-06-22T03:30:24;66.20;;;57.33;;
17570;SDS011;8903;52.220;20.978;2023-06-22T03:32:51;64.07;;;57.07;;
17570;SDS011;8903;52.220;20.978;2023-06-22T03:35:18;64.67;;;57.67;;
17570;SDS011;8903;52.220;20.978;2023-06-22T03:37:47;65.93;;;56.20;;
17570;SDS011;8903;52.220;20.978;2023-06-22T03:40:14;60.13;;;52.17;;
17570;SDS011;8903;52.220;20.978;2023-06-22T03:42:41;58.73;;;52.63;;
17570;SDS011;8903;52.220;20.978;2023-06-22T03:45:10;59.10;;;53.00;;
17570;SDS011;8903;52.220;20.978;2023-06-22T03:47:38;57.70;;;51.77;;
17570;SDS011;8903;52.220;20.978;2023-06-22T03:50:05;61.00;;;54.60;;
17570;SDS011;8903;52.220;20.978;2023-06-22T03:52:33;57.60;;;51.27;;
17570;SDS011;8903;52.220;20.978;2023-06-22T03:55:00;57.77;;;51.60;;
17570;SDS011;8903;52.220;20.978;2023-06-22T03:57:27;57.37;;;50.17;;
17570;SDS011;8903;52.220;20.978;2023-06-22T03:59:56;55.17;;;49.57;;
17570;SDS011;8903;52.220;20.978;2023-06-22T04:02:25;54.93;;;49.43;;
17570;SDS011;8903;52.220;20.978;2023-06-22T04:04:52;54.63;;;48.90;;
17570;SDS011;8903;52.220;20.978;2023-06-22T04:07:19;53.60;;;47.80;;
17570;SDS011;8903;52.220;20.978;2023-06-22T04:09:46;53.57;;;47.77;;
17570;SDS011;8903;52.220;20.978;2023-06-22T04:12:14;50.33;;;45.27;;
17570;SDS011;8903;52.220;20.978;2023-06-22T04:14:41;48.70;;;43.30;;
17570;SDS011;8903;52.220;20.978;2023-06-22T04:17:08;49.90;;;44.60;;
17570;SDS011;8903;52.220;20.978;2023-06-22T04:19:40;51.40;;;46.20;;
17570;SDS011;8903;52.220;20.978;2023-06-22T04:22:08;49.53;;;42.70;;
17570;SDS011;8903;52.220;20.978;2023-06-22T04:24:35;49.40;;;44.10;;
17570;SDS011;8903;52.220;20.978;2023-06-22T04:27:02;48.40;;;43.10;;
17570;SDS011;8903;52.220;20.978;2023-06-22T04:29:30;46.67;;;41.80;;
17570;SDS011;8903;52.220;20.978;2023-06-22T04:31:57;43.80;;;39.40;;
17570;SDS011;8903;52.220;20.978;2023-06-22T04:34:28;46.27;;;41.27;;
17570;SDS011;8903;52.220;20.978;2023-06-22T04:36:57;48.73;;;41.10;;
17570;SDS011;8903;52.220;20.978;2023-06-22T04:39:24;45.80;;;41.03;;
17570;SDS011;8903;52.220;20.978;2023-06-22T04:41:52;45.13;;;40.57;;
17570;SDS011;8903;52.220;20.978;2023-06-22T04:44:25;45.13;;;40.60;;
17570;SDS011;8903;52.220;20.978;2023-06-22T04:46:53;48.37;;;41.23;;
17570;SDS011;8903;52.220;20.978;2023-06-22T04:49:25;46.37;;;41.50;;
17570;SDS011;8903;52.220;20.978;2023-06-22T04:51:59;46.03;;;41.10;;
17570;SDS011;8903;52.220;20.978;2023-06-22T04:54:26;44.47;;;37.60;;
17570;SDS011;8903;52.220;20.978;2023-06-22T04:56:54;45.40;;;40.70;;
17570;SDS011;8903;52.220;20.978;2023-06-22T04:59:22;46.07;;;41.17;;
17570;SDS011;8903;52.220;20.978;2023-06-22T05:01:53;45.87;;;40.93;;
17570;SDS011;8903;52.220;20.978;2023-06-22T05:04:21;46.13;;;41.37;;
17570;SDS011;8903;52.220;20.978;2023-06-22T05:06:49;43.03;;;38.37;;
17570;SDS011;8903;52.220;20.978;2023-06-22T05:09:18;43.83;;;39.30;;
17570;SDS011;8903;52.220;20.978;2023-06-22T05:11:45;42.93;;;38.80;;
17570;SDS011;8903;52.220;20.978;2023-06-22T05:14:12;43.20;;;38.73;;
17570;SDS011;8903;52.220;20.978;2023-06-22T05:16:41;54.57;;;41.93;;
17570;SDS011;8903;52.220;20.978;2023-06-22T05:19:08;41.47;;;36.73;;
17570;SDS011;8903;52.220;20.978;2023-06-22T05:21:35;44.43;;;36.43;;
17570;SDS011;8903;52.220;20.978;2023-06-22T05:24:03;38.93;;;34.90;;
17570;SDS011;8903;52.220;20.978;2023-06-22T05:26:32;39.13;;;35.03;;
17570;SDS011;8903;52.220;20.978;2023-06-22T05:29:00;41.10;;;36.80;;
17570;SDS011;8903;52.220;20.978;2023-06-22T05:31:29;37.07;;;33.23;;
17570;SDS011;8903;52.220;20.978;2023-06-22T05:33:56;38.70;;;34.90;;
17570;SDS011;8903;52.220;20.978;2023-06-22T05:36:25;39.00;;;34.90;;
17570;SDS011;8903;52.220;20.978;2023-06-22T05:38:52;37.63;;;33.60;;
17570;SDS011;8903;52.220;20.978;2023-06-22T05:41:19;38.10;;;33.93;;
17570;SDS011;8903;52.220;20.978;2023-06-22T05:43:48;38.60;;;34.57;;
17570;SDS011;8903;52.220;20.978;2023-06-22T05:46:15;39.30;;;35.27;;
17570;SDS011;8903;52.220;20.978;2023-06-22T05:48:43;38.07;;;33.73;;
17570;SDS011;8903;52.220;20.978;2023-06-22T05:51:10;35.73;;;31.80;;
17570;SDS011;8903;52.220;20.978;2023-06-22T05:53:37;35.27;;;31.73;;
17570;SDS011;8903;52.220;20.978;2023-06-22T05:56:05;33.37;;;29.17;;
17570;SDS011;8903;52.220;20.978;2023-06-22T05:58:32;33.87;;;30.27;;
17570;SDS011;8903;52.220;20.978;2023-06-22T06:01:00;32.10;;;28.90;;
17570;SDS011;8903;52.220;20.978;2023-06-22T06:03:28;33.53;;;30.20;;
17570;SDS011;8903;52.220;20.978;2023-06-22T06:05:55;35.13;;;31.60;;
17570;SDS011;8903;52.220;20.978;2023-06-22T06:08:22;34.83;;;31.33;;
17570;SDS011;8903;52.220;20.978;2023-06-22T06:10:49;33.83;;;30.43;;
17570;SDS011;8903;52.220;20.978;2023-06-22T06:13:18;34.73;;;31.03;;
17570;SDS011;8903;52.220;20.978;2023-06-22T06:15:45;35.00;;;31.47;;
17570;SDS011;8903;52.220;20.978;2023-06-22T06:18:14;34.07;;;30.67;;
17570;SDS011;8903;52.220;20.978;2023-06-22T06:20:41;34.40;;;30.90;;
17570;SDS011;8903;52.220;20.978;2023-06-22T06:23:08;33.30;;;30.00;;
17570;SDS011;8903;52.220;20.978;2023-06-22T06:25:36;31.67;;;28.57;;
17570;SDS011;8903;52.220;20.978;2023-06-22T06:28:03;32.13;;;29.00;;
17570;SDS011;8903;52.220;20.978;2023-06-22T06:30:30;33.13;;;29.67;;
17570;SDS011;8903;52.220;20.978;2023-06-22T06:32:58;31.40;;;28.50;;
17570;SDS011;8903;52.220;20.978;2023-06-22T06:35:26;31.03;;;28.03;;
17570;SDS011;8903;52.220;20.978;2023-06-22T06:37:54;33.23;;;27.30;;
17570;SDS011;8903;52.220;20.978;2023-06-22T06:40:22;30.03;;;26.10;;
17570;SDS011;8903;52.220;20.978;2023-06-22T06:42:49;27.90;;;25.13;;
17570;SDS011;8903;52.220;20.978;2023-06-22T06:45:16;26.87;;;24.23;;
17570;SDS011;8903;52.220;20.978;2023-06-22T06:47:44;25.90;;;23.30;;
17570;SDS011;8903;52.220;20.978;2023-06-22T06:50:11;27.33;;;24.83;;
17570;SDS011;8903;52.220;20.978;2023-06-22T06:52:40;24.07;;;21.73;;
17570;SDS011;8903;52.220;20.978;2023-06-22T06:55:08;24.97;;;22.47;;
17570;SDS011;8903;52.220;20.978;2023-06-22T06:57:37;24.90;;;22.40;;
17570;SDS011;8903;52.220;20.978;2023-06-22T07:00:05;25.87;;;20.90;;
17570;SDS011;8903;52.220;20.978;2023-06-22T07:02:34;23.07;;;20.97;;
17570;SDS011;8903;52.220;20.978;2023-06-22T07:05:02;24.23;;;21.83;;
17570;SDS011;8903;52.220;20.978;2023-06-22T07:07:29;25.47;;;20.80;;
17570;SDS011;8903;52.220;20.978;2023-06-22T07:09:58;23.63;;;21.07;;
17570;SDS011;8903;52.220;20.978;2023-06-22T07:12:25;20.90;;;18.13;;
17570;SDS011;8903;52.220;20.978;2023-06-22T07:14:53;20.27;;;18.20;;
17570;SDS011;8903;52.220;20.978;2023-06-22T07:17:20;18.00;;;16.30;;
17570;SDS011;8903;52.220;20.978;2023-06-22T07:19:47;16.97;;;15.27;;
17570;SDS011;8903;52.220;20.978;2023-06-22T07:22:15;16.60;;;14.90;;
17570;SDS011;8903;52.220;20.978;2023-06-22T07:24:42;15.27;;;13.77;;
17570;SDS011;8903;52.220;20.978;2023-06-22T07:27:11;16.43;;;13.60;;
17570;SDS011;8903;52.220;20.978;2023-06-22T07:29:38;16.20;;;14.60;;
17570;SDS011;8903;52.220;20.978;2023-06-22T07:32:07;14.93;;;13.63;;
17570;SDS011;8903;52.220;20.978;2023-06-22T07:34:34;13.67;;;12.33;;
17570;SDS011;8903;52.220;20.978;2023-06-22T07:37:02;13.50;;;12.13;;
17570;SDS011;8903;52.220;20.978;2023-06-22T07:39:30;12.70;;;11.60;;
17570;SDS011;8903;52.220;20.978;2023-06-22T07:41:57;15.63;;;10.97;;
17570;SDS011;8903;52.220;20.978;2023-06-22T07:44:26;12.60;;;11.17;;
17570;SDS011;8903;52.220;20.978;2023-06-22T07:46:53;11.73;;;10.50;;
17570;SDS011;8903;52.220;20.978;2023-06-22T07:49:20;13.10;;;10.40;;
17570;SDS011;8903;52.220;20.978;2023-06-22T07:51:47;9.60;;;8.80;;
17570;SDS011;8903;52.220;20.978;2023-06-22T07:54:15;14.10;;;9.70;;
17570;SDS011;8903;52.220;20.978;2023-06-22T07:56:42;10.83;;;9.77;;
17570;SDS011;8903;52.220;20.978;2023-06-22T07:59:09;10.87;;;9.73;;
17570;SDS011;8903;52.220;20.978;2023-06-22T08:01:38;25.43;;;9.80;;
17570;SDS011;8903;52.220;20.978;2023-06-22T08:04:05;18.90;;;9.50;;
17570;SDS011;8903;52.220;20.978;2023-06-22T08:06:33;8.50;;;7.70;;
17570;SDS011;8903;52.220;20.978;2023-06-22T08:09:01;8.80;;;8.00;;
17570;SDS011;8903;52.220;20.978;2023-06-22T08:11:28;9.97;;;9.17;;
17570;SDS011;8903;52.220;20.978;2023-06-22T08:13:55;12.07;;;9.47;;
17570;SDS011;8903;52.220;20.978;2023-06-22T08:16:23;10.30;;;9.40;;
17570;SDS011;8903;52.220;20.978;2023-06-22T08:18:52;8.40;;;7.30;;
17570;SDS011;8903;52.220;20.978;2023-06-22T08:21:20;8.23;;;7.50;;
17570;SDS011;8903;52.220;20.978;2023-06-22T08:23:47;8.10;;;7.40;;
17570;SDS011;8903;52.220;20.978;2023-06-22T08:26:14;10.80;;;8.00;;
17570;SDS011;8903;52.220;20.978;2023-06-22T08:28:42;8.63;;;7.80;;
17570;SDS011;8903;52.220;20.978;2023-06-22T08:31:09;8.27;;;7.50;;
17570;SDS011;8903;52.220;20.978;2023-06-22T08:33:37;10.20;;;6.60;;
17570;SDS011;8903;52.220;20.978;2023-06-22T08:36:06;10.13;;;8.00;;
17570;SDS011;8903;52.220;20.978;2023-06-22T08:38:36;8.03;;;7.33;;
17570;SDS011;8903;52.220;20.978;2023-06-22T08:41:03;7.30;;;6.43;;
17570;SDS011;8903;52.220;20.978;2023-06-22T08:43:30;9.73;;;6.30;;
17570;SDS011;8903;52.220;20.978;2023-06-22T08:45:57;6.90;;;6.30;;
17570;SDS011;8903;52.220;20.978;2023-06-22T08:48:25;7.20;;;5.90;;
17570;SDS011;8903;52.220;20.978;2023-06-22T08:50:52;7.00;;;5.93;;
17570;SDS011;8903;52.220;20.978;2023-06-22T08:53:21;7.87;;;6.87;;
17570;SDS011;8903;52.220;20.978;2023-06-22T08:55:48;7.80;;;7.10;;
17570;SDS011;8903;52.220;20.978;2023-06-22T08:58:16;7.60;;;6.90;;
17570;SDS011;8903;52.220;20.978;2023-06-22T09:00:45;9.20;;;6.93;;
17570;SDS011;8903;52.220;20.978;2023-06-22T09:03:12;8.10;;;6.97;;
17570;SDS011;8903;52.220;20.978;2023-06-22T09:05:40;8.20;;;7.40;;
17570;SDS011;8903;52.220;20.978;2023-06-22T09:08:07;6.67;;;5.87;;
17570;SDS011;8903;52.220;20.978;2023-06-22T09:10:36;6.70;;;5.50;;
17570;SDS011;8903;52.220;20.978;2023-06-22T09:13:03;6.90;;;6.20;;
17570;SDS011;8903;52.220;20.978;2023-06-22T09:15:30;7.27;;;6.43;;
17570;SDS011;8903;52.220;20.978;2023-06-22T09:17:57;11.57;;;5.27;;
17570;SDS011;8903;52.220;20.978;2023-06-22T09:20:25;6.10;;;5.17;;
17570;SDS011;8903;52.220;20.978;2023-06-22T09:22:52;5.03;;;4.63;;
17570;SDS011;8903;52.220;20.978;2023-06-22T09:25:19;5.40;;;4.90;;
17570;SDS011;8903;52.220;20.978;2023-06-22T09:27:48;7.23;;;5.50;;
17570;SDS011;8903;52.220;20.978;2023-06-22T09:30:16;9.33;;;4.53;;
17570;SDS011;8903;52.220;20.978;2023-06-22T09:32:44;7.23;;;4.47;;
17570;SDS011;8903;52.220;20.978;2023-06-22T09:35:11;7.90;;;5.20;;
17570;SDS011;8903;52.220;20.978;2023-06-22T09:37:38;6.40;;;5.07;;
17570;SDS011;8903;52.220;20.978;2023-06-22T09:40:06;7.53;;;4.13;;
17570;SDS011;8903;52.220;20.978;2023-06-22T09:42:37;9.10;;;5.33;;
17570;SDS011;8903;52.220;20.978;2023-06-22T09:45:07;4.67;;;4.10;;
17570;SDS011;8903;52.220;20.978;2023-06-22T09:47:34;10.33;;;4.90;;
17570;SDS011;8903;52.220;20.978;2023-06-22T09:50:01;6.43;;;5.40;;
17570;SDS011;8903;52.220;20.978;2023-06-22T09:52:29;4.73;;;4.33;;
17570;SDS011;8903;52.220;20.978;2023-06-22T09:54:56;4.47;;;4.07;;
17570;SDS011;8903;52.220;20.978;2023-06-22T09:57:23;5.03;;;3.83;;
17570;SDS011;8903;52.220;20.978;2023-06-22T09:59:51;4.23;;;3.93;;
17570;SDS011;8903;52.220;20.978;2023-06-22T10:02:19;8.00;;;4.93;;
17570;SDS011;8903;52.220;20.978;2023-06-22T10:04:47;7.67;;;3.97;;
17570;SDS011;8903;52.220;20.978;2023-06-22T10:07:14;25.90;;;6.80;;
17570;SDS011;8903;52.220;20.978;2023-06-22T10:09:41;16.80;;;5.50;;
17570;SDS011;8903;52.220;20.978;2023-06-22T10:12:09;5.87;;;4.00;;
17570;SDS011;8903;52.220;20.978;2023-06-22T10:14:36;8.67;;;4.50;;
17570;SDS011;8903;52.220;20.978;2023-06-22T10:17:04;6.00;;;4.40;;
17570;SDS011;8903;52.220;20.978;2023-06-22T10:19:33;12.70;;;6.93;;
17570;SDS011;8903;52.220;20.978;2023-06-22T10:22:03;7.97;;;5.63;;
17570;SDS011;8903;52.220;20.978;2023-06-22T10:24:30;5.03;;;4.40;;
17570;SDS011;8903;52.220;20.978;2023-06-22T10:26:57;13.77;;;5.10;;
17570;SDS011;8903;52.220;20.978;2023-06-22T10:29:24;7.00;;;4.30;;
17570;SDS011;8903;52.220;20.978;2023-06-22T10:31:52;5.80;;;5.00;;
17570;SDS011;8903;52.220;20.978;2023-06-22T10:34:20;10.37;;;5.13;;
17570;SDS011;8903;52.220;20.978;2023-06-22T10:36:48;5.43;;;4.77;;
17570;SDS011;8903;52.220;20.978;2023-06-22T10:39:16;7.60;;;4.90;;
17570;SDS011;8903;52.220;20.978;2023-06-22T10:41:44;7.60;;;4.87;;
17570;SDS011;8903;52.220;20.978;2023-06-22T10:44:12;5.03;;;4.53;;
17570;SDS011;8903;52.220;20.978;2023-06-22T10:46:40;5.40;;;4.90;;
17570;SDS011;8903;52.220;20.978;2023-06-22T10:49:07;8.13;;;5.23;;
17570;SDS011;8903;52.220;20.978;2023-06-22T10:51:34;5.50;;;4.70;;
17570;SDS011;8903;52.220;20.978;2023-06-22T10:54:03;6.67;;;4.80;;
17570;SDS011;8903;52.220;20.978;2023-06-22T10:56:30;5.30;;;4.53;;
17570;SDS011;8903;52.220;20.978;2023-06-22T10:58:58;17.83;;;5.70;;
17570;SDS011;8903;52.220;20.978;2023-06-22T11:01:27;6.90;;;4.70;;
17570;SDS011;8903;52.220;20.978;2023-06-22T11:03:56;6.93;;;5.10;;
17570;SDS011;8903;52.220;20.978;2023-06-22T11:06:23;10.27;;;6.00;;
17570;SDS011;8903;52.220;20.978;2023-06-22T11:08:50;8.13;;;4.70;;
17570;SDS011;8903;52.220;20.978;2023-06-22T11:11:19;5.77;;;4.20;;
17570;SDS011;8903;52.220;20.978;2023-06-22T11:13:46;5.20;;;4.70;;
17570;SDS011;8903;52.220;20.978;2023-06-22T11:16:14;7.50;;;4.47;;
17570;SDS011;8903;52.220;20.978;2023-06-22T11:18:41;6.17;;;5.47;;
17570;SDS011;8903;52.220;20.978;2023-06-22T11:21:08;7.60;;;5.30;;
17570;SDS011;8903;52.220;20.978;2023-06-22T11:23:35;13.60;;;4.97;;
17570;SDS011;8903;52.220;20.978;2023-06-22T11:26:03;6.03;;;4.90;;
17570;SDS011;8903;52.220;20.978;2023-06-22T11:28:31;5.50;;;5.00;;
17570;SDS011;8903;52.220;20.978;2023-06-22T11:30:58;5.00;;;4.60;;
17570;SDS011;8903;52.220;20.978;2023-06-22T11:33:26;4.87;;;4.33;;
17570;SDS011;8903;52.220;20.978;2023-06-22T11:35:53;5.70;;;5.20;;
17570;SDS011;8903;52.220;20.978;2023-06-22T11:38:21;9.70;;;5.30;;
17570;SDS011;8903;52.220;20.978;2023-06-22T11:40:48;7.73;;;4.63;;
17570;SDS011;8903;52.220;20.978;2023-06-22T11:43:16;8.00;;;4.80;;
17570;SDS011;8903;52.220;20.978;2023-06-22T11:45:44;5.83;;;5.33;;
17570;SDS011;8903;52.220;20.978;2023-06-22T11:48:18;4.67;;;4.30;;
17570;SDS011;8903;52.220;20.978;2023-06-22T11:50:45;6.30;;;4.70;;
17570;SDS011;8903;52.220;20.978;2023-06-22T11:53:12;6.13;;;5.57;;
17570;SDS011;8903;52.220;20.978;2023-06-22T11:55:42;6.47;;;5.13;;
17570;SDS011;8903;52.220;20.978;2023-06-22T11:58:09;5.13;;;4.70;;
17570;SDS011;8903;52.220;20.978;2023-06-22T12:00:37;6.30;;;4.87;;
17570;SDS011;8903;52.220;20.978;2023-06-22T12:03:05;6.33;;;5.30;;
17570;SDS011;8903;52.220;20.978;2023-06-22T12:05:32;5.23;;;4.83;;
17570;SDS011;8903;52.220;20.978;2023-06-22T12:08:00;7.13;;;5.03;;
17570;SDS011;8903;52.220;20.978;2023-06-22T12:10:27;5.67;;;5.17;;
17570;SDS011;8903;52.220;20.978;2023-06-22T12:12:54;4.60;;;4.30;;
17570;SDS011;8903;52.220;20.978;2023-06-22T12:15:22;5.77;;;5.20;;
17570;SDS011;8903;52.220;20.978;2023-06-22T12:17:50;5.20;;;4.33;;
17570;SDS011;8903;52.220;20.978;2023-06-22T12:20:21;4.80;;;4.37;;
17570;SDS011;8903;52.220;20.978;2023-06-22T12:22:48;5.63;;;4.13;;
17570;SDS011;8903;52.220;20.978;2023-06-22T12:25:16;4.83;;;4.43;;
17570;SDS011;8903;52.220;20.978;2023-06-22T12:27:44;5.40;;;4.40;;
17570;SDS011;8903;52.220;20.978;2023-06-22T12:30:11;4.60;;;4.20;;
17570;SDS011;8903;52.220;20.978;2023-06-22T12:32:38;5.30;;;4.67;;
17570;SDS011;8903;52.220;20.978;2023-06-22T12:35:06;5.83;;;4.80;;
17570;SDS011;8903;52.220;20.978;2023-06-22T12:37:40;6.13;;;4.53;;
17570;SDS011;8903;52.220;20.978;2023-06-22T12:40:08;6.40;;;5.23;;
17570;SDS011;8903;52.220;20.978;2023-06-22T12:42:35;7.50;;;5.87;;
17570;SDS011;8903;52.220;20.978;2023-06-22T12:45:03;5.50;;;5.00;;
17570;SDS011;8903;52.220;20.978;2023-06-22T12:47:30;4.90;;;4.50;;
17570;SDS011;8903;52.220;20.978;2023-06-22T12:49:57;17.60;;;4.90;;
17570;SDS011;8903;52.220;20.978;2023-06-22T12:52:25;6.47;;;4.73;;
17570;SDS011;8903;52.220;20.978;2023-06-22T12:54:53;7.87;;;4.60;;
17570;SDS011;8903;52.220;20.978;2023-06-22T12:57:21;5.33;;;4.67;;
17570;SDS011;8903;52.220;20.978;2023-06-22T12:59:48;7.30;;;4.80;;
17570;SDS011;8903;52.220;20.978;2023-06-22T13:02:15;5.53;;;5.03;;
17570;SDS011;8903;52.220;20.978;2023-06-22T13:04:43;7.33;;;4.00;;
17570;SDS011;8903;52.220;20.978;2023-06-22T13:07:10;5.60;;;4.33;;
17570;SDS011;8903;52.220;20.978;2023-06-22T13:09:37;7.63;;;4.73;;
17570;SDS011;8903;52.220;20.978;2023-06-22T13:12:06;7.03;;;4.80;;
17570;SDS011;8903;52.220;20.978;2023-06-22T13:14:34;5.70;;;5.13;;
17570;SDS011;8903;52.220;20.978;2023-06-22T13:17:01;6.13;;;4.80;;
17570;SDS011;8903;52.220;20.978;2023-06-22T13:19:28;5.33;;;4.43;;
17570;SDS011;8903;52.220;20.978;2023-06-22T13:21:58;5.77;;;4.97;;
17570;SDS011;8903;52.220;20.978;2023-06-22T13:24:25;8.13;;;5.37;;
17570;SDS011;8903;52.220;20.978;2023-06-22T13:26:52;9.10;;;5.17;;
17570;SDS011;8903;52.220;20.978;2023-06-22T13:29:21;9.63;;;5.13;;
17570;SDS011;8903;52.220;20.978;2023-06-22T13:31:48;5.40;;;4.70;;
17570;SDS011;8903;52.220;20.978;2023-06-22T13:34:16;5.00;;;4.60;;
17570;SDS011;8903;52.220;20.978;2023-06-22T13:36:43;6.50;;;3.90;;
17570;SDS011;8903;52.220;20.978;2023-06-22T13:39:11;4.10;;;3.43;;
17570;SDS011;8903;52.220;20.978;2023-06-22T13:41:38;5.00;;;3.80;;
17570;SDS011;8903;52.220;20.978;2023-06-22T13:44:05;4.43;;;4.10;;
17570;SDS011;8903;52.220;20.978;2023-06-22T13:46:34;15.50;;;4.60;;
17570;SDS011;8903;52.220;20.978;2023-06-22T13:49:01;5.17;;;4.00;;
17570;SDS011;8903;52.220;20.978;2023-06-22T13:51:29;8.40;;;4.97;;
17570;SDS011;8903;52.220;20.978;2023-06-22T13:53:56;5.67;;;4.40;;
17570;SDS011;8903;52.220;20.978;2023-06-22T13:56:23;6.37;;;4.83;;
17570;SDS011;8903;52.220;20.978;2023-06-22T13:58:50;9.77;;;4.83;;
17570;SDS011;8903;52.220;20.978;2023-06-22T14:01:18;8.57;;;4.50;;
17570;SDS011;8903;52.220;20.978;2023-06-22T14:03:47;4.53;;;4.03;;
17570;SDS011;8903;52.220;20.978;2023-06-22T14:06:14;4.20;;;3.90;;
17570;SDS011;8903;52.220;20.978;2023-06-22T14:08:42;4.60;;;4.17;;
17570;SDS011;8903;52.220;20.978;2023-06-22T14:11:09;4.60;;;4.07;;
17570;SDS011;8903;52.220;20.978;2023-06-22T14:13:36;5.90;;;4.00;;
17570;SDS011;8903;52.220;20.978;2023-06-22T14:16:04;5.03;;;4.60;;
17570;SDS011;8903;52.220;20.978;2023-06-22T14:18:31;4.53;;;4.23;;
17570;SDS011;8903;52.220;20.978;2023-06-22T14:21:00;4.30;;;4.00;;
17570;SDS011;8903;52.220;20.978;2023-06-22T14:23:27;4.37;;;3.97;;
17570;SDS011;8903;52.220;20.978;2023-06-22T14:25:54;4.83;;;4.30;;
17570;SDS011;8903;52.220;20.978;2023-06-22T14:28:22;4.63;;;4.23;;
17570;SDS011;8903;52.220;20.978;2023-06-22T14:30:49;4.37;;;3.97;;
17570;SDS011;8903;52.220;20.978;2023-06-22T14:33:16;9.33;;;5.50;;
17570;SDS011;8903;52.220;20.978;2023-06-22T14:35:43;6.33;;;5.73;;
17570;SDS011;8903;52.220;20.978;2023-06-22T14:38:12;4.20;;;3.90;;